sensor_id;sensor_type;location;lat;lon;timestamp;temperature;humidity
3037;DHT22;1528;52.550;13.408;2022-09-23T00:02:44;11.00;28.70
3037;DHT22;1528;52.550;13.408;2022-09-23T00:05:31;11.00;28.40
3037;DHT22;1528;52.550;13.408;2022-09-23T00:08:17;11.00;28.70
3037;DHT22;1528;52.550;13.408;2022-09-23T00:11:05;11.00;28.60
3037;DHT22;1528;52.550;13.408;2022-09-23T00:13:52;10.90;28.50
3037;DHT22;1528;52.550;13.408;2022-09-23T00:16:38;10.90;28.50
3037;DHT22;1528;52.550;13.408;2022-09-23T00:19:24;10.90;28.90
3037;DHT22;1528;52.550;13.408;2022-09-23T00:22:10;10.80;28.50
3037;DHT22;1528;52.550;13.408;2022-09-23T00:24:58;10.80;28.60
3037;DHT22;1528;52.550;13.408;2022-09-23T00:27:44;10.80;28.90
3037;DHT22;1528;52.550;13.408;2022-09-23T00:30:29;10.70;28.80
3037;DHT22;1528;52.550;13.408;2022-09-23T00:33:15;10.60;29.00
3037;DHT22;1528;52.550;13.408;2022-09-23T00:36:03;10.60;29.40
3037;DHT22;1528;52.550;13.408;2022-09-23T00:38:48;10.60;29.30
3037;DHT22;1528;52.550;13.408;2022-09-23T00:41:36;10.70;29.80
3037;DHT22;1528;52.550;13.408;2022-09-23T00:44:43;10.60;29.40
3037;DHT22;1528;52.550;13.408;2022-09-23T00:47:32;10.60;29.70
3037;DHT22;1528;52.550;13.408;2022-09-23T00:50:23;10.60;29.80
3037;DHT22;1528;52.550;13.408;2022-09-23T00:53:11;10.50;30.00
3037;DHT22;1528;52.550;13.408;2022-09-23T00:56:02;10.50;29.80
3037;DHT22;1528;52.550;13.408;2022-09-23T00:58:52;10.50;29.90
3037;DHT22;1528;52.550;13.408;2022-09-23T01:01:38;10.50;30.00
3037;DHT22;1528;52.550;13.408;2022-09-23T01:04:26;10.50;30.40
3037;DHT22;1528;52.550;13.408;2022-09-23T01:07:12;10.60;29.90
3037;DHT22;1528;52.550;13.408;2022-09-23T01:09:58;10.60;30.50
3037;DHT22;1528;52.550;13.408;2022-09-23T01:12:55;10.60;30.20
3037;DHT22;1528;52.550;13.408;2022-09-23T01:15:48;10.60;30.40
3037;DHT22;1528;52.550;13.408;2022-09-23T01:18:41;10.50;30.50
3037;DHT22;1528;52.550;13.408;2022-09-23T01:21:38;10.60;30.60
3037;DHT22;1528;52.550;13.408;2022-09-23T01:24:45;10.60;30.50
3037;DHT22;1528;52.550;13.408;2022-09-23T01:27:45;10.50;30.80
3037;DHT22;1528;52.550;13.408;2022-09-23T01:30:47;10.50;30.20
3037;DHT22;1528;52.550;13.408;2022-09-23T01:33:38;10.70;30.40
3037;DHT22;1528;52.550;13.408;2022-09-23T01:36:28;10.60;30.70
3037;DHT22;1528;52.550;13.408;2022-09-23T01:39:19;10.60;30.70
3037;DHT22;1528;52.550;13.408;2022-09-23T01:42:14;10.70;30.70
3037;DHT22;1528;52.550;13.408;2022-09-23T01:45:08;10.70;30.40
3037;DHT22;1528;52.550;13.408;2022-09-23T01:48:01;10.70;30.70
3037;DHT22;1528;52.550;13.408;2022-09-23T01:50:56;10.70;30.70
3037;DHT22;1528;52.550;13.408;2022-09-23T01:53:46;10.60;30.50
3037;DHT22;1528;52.550;13.408;2022-09-23T01:56:38;10.60;31.00
3037;DHT22;1528;52.550;13.408;2022-09-23T01:59:28;10.60;31.00
3037;DHT22;1528;52.550;13.408;2022-09-23T02:02:18;10.60;30.90
3037;DHT22;1528;52.550;13.408;2022-09-23T02:05:09;10.60;30.90
3037;DHT22;1528;52.550;13.408;2022-09-23T02:07:59;10.70;31.10
3037;DHT22;1528;52.550;13.408;2022-09-23T02:10:49;10.60;31.00
3037;DHT22;1528;52.550;13.408;2022-09-23T02:13:39;10.50;31.20
3037;DHT22;1528;52.550;13.408;2022-09-23T02:16:28;10.50;31.40
3037;DHT22;1528;52.550;13.408;2022-09-23T02:19:19;10.60;31.30
3037;DHT22;1528;52.550;13.408;2022-09-23T02:22:11;10.60;31.10
3037;DHT22;1528;52.550;13.408;2022-09-23T02:24:58;10.50;31.30
3037;DHT22;1528;52.550;13.408;2022-09-23T02:27:49;10.50;32.10
3037;DHT22;1528;52.550;13.408;2022-09-23T02:30:43;10.50;32.00
3037;DHT22;1528;52.550;13.408;2022-09-23T02:33:35;10.50;31.40
3037;DHT22;1528;52.550;13.408;2022-09-23T02:36:27;10.60;31.70
3037;DHT22;1528;52.550;13.408;2022-09-23T02:39:17;10.50;31.40
3037;DHT22;1528;52.550;13.408;2022-09-23T02:42:09;10.50;31.40
3037;DHT22;1528;52.550;13.408;2022-09-23T02:44:57;10.50;31.70
3037;DHT22;1528;52.550;13.408;2022-09-23T02:47:45;10.50;31.90
3037;DHT22;1528;52.550;13.408;2022-09-23T02:50:32;10.50;31.50
3037;DHT22;1528;52.550;13.408;2022-09-23T02:53:18;10.50;31.50
3037;DHT22;1528;52.550;13.408;2022-09-23T02:56:14;10.50;31.60
3037;DHT22;1528;52.550;13.408;2022-09-23T02:59:01;10.50;31.70
3037;DHT22;1528;52.550;13.408;2022-09-23T03:02:06;10.40;31.50
3037;DHT22;1528;52.550;13.408;2022-09-23T03:05:06;10.40;31.70
3037;DHT22;1528;52.550;13.408;2022-09-23T03:08:06;10.50;31.60
3037;DHT22;1528;52.550;13.408;2022-09-23T03:10:59;10.40;31.70
3037;DHT22;1528;52.550;13.408;2022-09-23T03:13:56;10.40;31.70
3037;DHT22;1528;52.550;13.408;2022-09-23T03:16:53;10.40;31.80
3037;DHT22;1528;52.550;13.408;2022-09-23T03:19:47;10.40;31.60
3037;DHT22;1528;52.550;13.408;2022-09-23T03:22:38;10.40;31.60
3037;DHT22;1528;52.550;13.408;2022-09-23T03:25:27;10.30;31.80
3037;DHT22;1528;52.550;13.408;2022-09-23T03:28:16;10.30;31.70
3037;DHT22;1528;52.550;13.408;2022-09-23T03:31:05;10.30;31.60
3037;DHT22;1528;52.550;13.408;2022-09-23T03:33:53;10.30;31.80
3037;DHT22;1528;52.550;13.408;2022-09-23T03:36:45;10.20;32.00
3037;DHT22;1528;52.550;13.408;2022-09-23T03:39:40;10.20;31.80
3037;DHT22;1528;52.550;13.408;2022-09-23T03:42:28;10.20;31.70
3037;DHT22;1528;52.550;13.408;2022-09-23T03:45:17;10.20;31.80
3037;DHT22;1528;52.550;13.408;2022-09-23T03:48:05;10.20;31.80
3037;DHT22;1528;52.550;13.408;2022-09-23T03:50:51;10.20;31.70
3037;DHT22;1528;52.550;13.408;2022-09-23T03:53:36;10.20;32.00
3037;DHT22;1528;52.550;13.408;2022-09-23T03:56:22;10.20;31.90
3037;DHT22;1528;52.550;13.408;2022-09-23T03:59:08;10.20;32.00
3037;DHT22;1528;52.550;13.408;2022-09-23T04:01:53;10.10;32.00
3037;DHT22;1528;52.550;13.408;2022-09-23T04:04:41;10.10;32.30
3037;DHT22;1528;52.550;13.408;2022-09-23T04:07:26;10.10;32.30
3037;DHT22;1528;52.550;13.408;2022-09-23T04:10:12;10.20;32.30
3037;DHT22;1528;52.550;13.408;2022-09-23T04:12:57;10.10;32.40
3037;DHT22;1528;52.550;13.408;2022-09-23T04:15:43;10.10;32.40
3037;DHT22;1528;52.550;13.408;2022-09-23T04:18:28;10.00;32.40
3037;DHT22;1528;52.550;13.408;2022-09-23T04:21:15;10.00;32.60
3037;DHT22;1528;52.550;13.408;2022-09-23T04:24:01;10.00;32.30
3037;DHT22;1528;52.550;13.408;2022-09-23T04:26:49;10.00;32.40
3037;DHT22;1528;52.550;13.408;2022-09-23T04:29:36;10.00;32.20
3037;DHT22;1528;52.550;13.408;2022-09-23T04:32:22;10.00;32.30
3037;DHT22;1528;52.550;13.408;2022-09-23T04:35:07;10.00;32.50
3037;DHT22;1528;52.550;13.408;2022-09-23T04:37:54;10.00;32.40
3037;DHT22;1528;52.550;13.408;2022-09-23T04:40:40;10.00;33.20
3037;DHT22;1528;52.550;13.408;2022-09-23T04:43:25;9.90;33.70
3037;DHT22;1528;52.550;13.408;2022-09-23T04:46:13;9.90;33.50
3037;DHT22;1528;52.550;13.408;2022-09-23T04:48:58;9.90;33.50
3037;DHT22;1528;52.550;13.408;2022-09-23T04:51:44;9.90;33.50
3037;DHT22;1528;52.550;13.408;2022-09-23T04:54:31;9.80;33.30
3037;DHT22;1528;52.550;13.408;2022-09-23T04:57:16;9.90;33.70
3037;DHT22;1528;52.550;13.408;2022-09-23T05:00:03;9.80;33.40
3037;DHT22;1528;52.550;13.408;2022-09-23T05:02:49;9.90;33.60
3037;DHT22;1528;52.550;13.408;2022-09-23T05:05:35;9.90;33.70
3037;DHT22;1528;52.550;13.408;2022-09-23T05:08:20;9.90;33.60
3037;DHT22;1528;52.550;13.408;2022-09-23T05:11:07;9.90;33.40
3037;DHT22;1528;52.550;13.408;2022-09-23T05:13:53;9.80;33.70
3037;DHT22;1528;52.550;13.408;2022-09-23T05:16:38;9.80;33.90
3037;DHT22;1528;52.550;13.408;2022-09-23T05:19:24;9.90;33.60
3037;DHT22;1528;52.550;13.408;2022-09-23T05:22:09;9.90;33.70
3037;DHT22;1528;52.550;13.408;2022-09-23T05:24:55;9.90;33.80
3037;DHT22;1528;52.550;13.408;2022-09-23T05:27:44;9.90;33.90
3037;DHT22;1528;52.550;13.408;2022-09-23T05:30:29;9.90;34.10
3037;DHT22;1528;52.550;13.408;2022-09-23T05:33:14;9.90;34.20
3037;DHT22;1528;52.550;13.408;2022-09-23T05:36:00;9.90;33.60
3037;DHT22;1528;52.550;13.408;2022-09-23T05:38:47;9.90;33.90
3037;DHT22;1528;52.550;13.408;2022-09-23T05:41:32;10.00;33.10
3037;DHT22;1528;52.550;13.408;2022-09-23T05:44:19;9.90;34.00
3037;DHT22;1528;52.550;13.408;2022-09-23T05:47:05;10.00;33.20
3037;DHT22;1528;52.550;13.408;2022-09-23T05:49:50;9.90;33.90
3037;DHT22;1528;52.550;13.408;2022-09-23T05:52:36;9.90;34.30
3037;DHT22;1528;52.550;13.408;2022-09-23T05:55:21;9.90;34.20
3037;DHT22;1528;52.550;13.408;2022-09-23T05:58:07;9.90;34.50
3037;DHT22;1528;52.550;13.408;2022-09-23T06:00:54;9.90;34.00
3037;DHT22;1528;52.550;13.408;2022-09-23T06:03:40;9.90;34.30
3037;DHT22;1528;52.550;13.408;2022-09-23T06:06:27;9.90;34.50
3037;DHT22;1528;52.550;13.408;2022-09-23T06:09:14;9.90;34.60
3037;DHT22;1528;52.550;13.408;2022-09-23T06:12:00;10.10;33.50
3037;DHT22;1528;52.550;13.408;2022-09-23T06:14:45;10.00;33.50
3037;DHT22;1528;52.550;13.408;2022-09-23T06:17:35;10.00;33.60
3037;DHT22;1528;52.550;13.408;2022-09-23T06:20:20;10.00;33.50
3037;DHT22;1528;52.550;13.408;2022-09-23T06:23:07;10.10;33.50
3037;DHT22;1528;52.550;13.408;2022-09-23T06:25:52;10.20;33.30
3037;DHT22;1528;52.550;13.408;2022-09-23T06:28:39;10.20;33.20
3037;DHT22;1528;52.550;13.408;2022-09-23T06:31:26;10.20;33.30
3037;DHT22;1528;52.550;13.408;2022-09-23T06:34:12;10.40;33.20
3037;DHT22;1528;52.550;13.408;2022-09-23T06:36:58;10.50;32.80
3037;DHT22;1528;52.550;13.408;2022-09-23T06:39:43;10.40;32.30
3037;DHT22;1528;52.550;13.408;2022-09-23T06:42:29;10.50;32.90
3037;DHT22;1528;52.550;13.408;2022-09-23T06:45:15;10.60;33.10
3037;DHT22;1528;52.550;13.408;2022-09-23T06:48:01;10.60;33.60
3037;DHT22;1528;52.550;13.408;2022-09-23T06:50:49;10.70;32.50
3037;DHT22;1528;52.550;13.408;2022-09-23T06:53:36;10.90;31.90
3037;DHT22;1528;52.550;13.408;2022-09-23T06:56:22;10.90;31.80
3037;DHT22;1528;52.550;13.408;2022-09-23T06:59:09;10.90;31.80
3037;DHT22;1528;52.550;13.408;2022-09-23T07:01:56;11.00;31.70
3037;DHT22;1528;52.550;13.408;2022-09-23T07:04:41;11.20;31.50
3037;DHT22;1528;52.550;13.408;2022-09-23T07:07:30;11.10;31.60
3037;DHT22;1528;52.550;13.408;2022-09-23T07:10:16;11.20;31.30
3037;DHT22;1528;52.550;13.408;2022-09-23T07:13:02;11.30;31.20
3037;DHT22;1528;52.550;13.408;2022-09-23T07:15:48;11.30;31.00
3037;DHT22;1528;52.550;13.408;2022-09-23T07:18:34;11.40;30.60
3037;DHT22;1528;52.550;13.408;2022-09-23T07:21:20;11.50;30.40
3037;DHT22;1528;52.550;13.408;2022-09-23T07:24:07;11.60;30.60
3037;DHT22;1528;52.550;13.408;2022-09-23T07:26:53;11.80;30.40
3037;DHT22;1528;52.550;13.408;2022-09-23T07:29:39;11.80;29.80
3037;DHT22;1528;52.550;13.408;2022-09-23T07:32:24;11.90;29.90
3037;DHT22;1528;52.550;13.408;2022-09-23T07:35:10;12.00;29.90
3037;DHT22;1528;52.550;13.408;2022-09-23T07:37:56;12.40;29.10
3037;DHT22;1528;52.550;13.408;2022-09-23T07:40:42;12.40;28.90
3037;DHT22;1528;52.550;13.408;2022-09-23T07:43:28;12.50;28.70
3037;DHT22;1528;52.550;13.408;2022-09-23T07:46:16;12.50;28.60
3037;DHT22;1528;52.550;13.408;2022-09-23T07:49:02;12.60;28.60
3037;DHT22;1528;52.550;13.408;2022-09-23T07:51:48;12.80;28.70
3037;DHT22;1528;52.550;13.408;2022-09-23T07:54:33;13.00;27.90
3037;DHT22;1528;52.550;13.408;2022-09-23T07:57:20;12.90;28.10
3037;DHT22;1528;52.550;13.408;2022-09-23T08:00:07;13.00;28.10
3037;DHT22;1528;52.550;13.408;2022-09-23T08:02:53;13.30;27.30
3037;DHT22;1528;52.550;13.408;2022-09-23T08:05:38;13.40;27.50
3037;DHT22;1528;52.550;13.408;2022-09-23T08:08:24;13.40;27.60
3037;DHT22;1528;52.550;13.408;2022-09-23T08:11:11;13.50;27.70
3037;DHT22;1528;52.550;13.408;2022-09-23T08:13:58;13.60;27.70
3037;DHT22;1528;52.550;13.408;2022-09-23T08:16:44;13.80;27.30
3037;DHT22;1528;52.550;13.408;2022-09-23T08:19:30;13.80;27.10
3037;DHT22;1528;52.550;13.408;2022-09-23T08:22:16;14.00;27.10
3037;DHT22;1528;52.550;13.408;2022-09-23T08:25:03;14.10;27.20
3037;DHT22;1528;52.550;13.408;2022-09-23T08:27:49;14.30;26.30
3037;DHT22;1528;52.550;13.408;2022-09-23T08:30:38;14.30;26.10
3037;DHT22;1528;52.550;13.408;2022-09-23T08:33:23;14.30;26.00
3037;DHT22;1528;52.550;13.408;2022-09-23T08:36:08;14.20;26.40
3037;DHT22;1528;52.550;13.408;2022-09-23T08:38:53;14.40;26.60
3037;DHT22;1528;52.550;13.408;2022-09-23T08:41:44;14.40;26.10
3037;DHT22;1528;52.550;13.408;2022-09-23T08:44:45;14.50;26.10
3037;DHT22;1528;52.550;13.408;2022-09-23T08:47:40;14.70;25.90
3037;DHT22;1528;52.550;13.408;2022-09-23T08:50:30;14.70;26.00
3037;DHT22;1528;52.550;13.408;2022-09-23T08:53:24;14.80;26.00
3037;DHT22;1528;52.550;13.408;2022-09-23T08:56:15;14.70;26.10
3037;DHT22;1528;52.550;13.408;2022-09-23T08:59:04;14.90;25.80
3037;DHT22;1528;52.550;13.408;2022-09-23T09:01:55;15.00;25.50
3037;DHT22;1528;52.550;13.408;2022-09-23T09:04:44;14.90;25.60
3037;DHT22;1528;52.550;13.408;2022-09-23T09:07:33;15.10;25.30
3037;DHT22;1528;52.550;13.408;2022-09-23T09:10:22;15.20;25.10
3037;DHT22;1528;52.550;13.408;2022-09-23T09:13:18;15.30;24.80
3037;DHT22;1528;52.550;13.408;2022-09-23T09:16:18;15.40;24.00
3037;DHT22;1528;52.550;13.408;2022-09-23T09:19:12;15.50;23.50
3037;DHT22;1528;52.550;13.408;2022-09-23T09:22:04;15.50;23.10
3037;DHT22;1528;52.550;13.408;2022-09-23T09:24:53;15.60;22.80
3037;DHT22;1528;52.550;13.408;2022-09-23T09:27:42;15.60;22.90
3037;DHT22;1528;52.550;13.408;2022-09-23T09:30:27;15.90;23.00
3037;DHT22;1528;52.550;13.408;2022-09-23T09:33:15;16.30;22.50
3037;DHT22;1528;52.550;13.408;2022-09-23T09:36:13;16.60;21.50
3037;DHT22;1528;52.550;13.408;2022-09-23T09:39:04;16.70;21.80
3037;DHT22;1528;52.550;13.408;2022-09-23T09:41:50;16.60;21.40
3037;DHT22;1528;52.550;13.408;2022-09-23T09:44:38;16.70;21.30
3037;DHT22;1528;52.550;13.408;2022-09-23T09:47:33;16.50;21.40
3037;DHT22;1528;52.550;13.408;2022-09-23T09:50:42;16.60;21.00
3037;DHT22;1528;52.550;13.408;2022-09-23T09:53:28;16.80;19.60
3037;DHT22;1528;52.550;13.408;2022-09-23T09:56:22;16.50;19.90
3037;DHT22;1528;52.550;13.408;2022-09-23T09:59:15;16.50;20.20
3037;DHT22;1528;52.550;13.408;2022-09-23T10:02:19;16.80;20.50
3037;DHT22;1528;52.550;13.408;2022-09-23T10:05:06;16.70;20.10
3037;DHT22;1528;52.550;13.408;2022-09-23T10:07:52;16.90;20.20
3037;DHT22;1528;52.550;13.408;2022-09-23T10:10:38;17.10;19.50
3037;DHT22;1528;52.550;13.408;2022-09-23T10:13:36;17.70;18.70
3037;DHT22;1528;52.550;13.408;2022-09-23T10:16:22;18.20;15.80
3037;DHT22;1528;52.550;13.408;2022-09-23T10:19:15;18.10;15.60
3037;DHT22;1528;52.550;13.408;2022-09-23T10:22:03;18.20;15.20
3037;DHT22;1528;52.550;13.408;2022-09-23T10:24:53;18.20;15.00
3037;DHT22;1528;52.550;13.408;2022-09-23T10:27:39;18.20;13.20
3037;DHT22;1528;52.550;13.408;2022-09-23T10:30:27;18.40;13.50
3037;DHT22;1528;52.550;13.408;2022-09-23T10:33:26;18.40;14.40
3037;DHT22;1528;52.550;13.408;2022-09-23T10:36:13;18.50;14.70
3037;DHT22;1528;52.550;13.408;2022-09-23T10:39:00;18.40;14.60
3037;DHT22;1528;52.550;13.408;2022-09-23T10:42:03;18.40;15.20
3037;DHT22;1528;52.550;13.408;2022-09-23T10:45:16;18.50;14.30
3037;DHT22;1528;52.550;13.408;2022-09-23T10:48:29;18.80;14.30
3037;DHT22;1528;52.550;13.408;2022-09-23T10:51:26;19.00;13.60
3037;DHT22;1528;52.550;13.408;2022-09-23T10:54:22;19.10;12.60
3037;DHT22;1528;52.550;13.408;2022-09-23T10:57:19;19.30;11.10
3037;DHT22;1528;52.550;13.408;2022-09-23T11:00:30;19.50;10.40
3037;DHT22;1528;52.550;13.408;2022-09-23T11:03:42;19.70;10.20
3037;DHT22;1528;52.550;13.408;2022-09-23T11:06:42;19.70;9.80
3037;DHT22;1528;52.550;13.408;2022-09-23T11:09:38;19.60;8.10
3037;DHT22;1528;52.550;13.408;2022-09-23T11:12:34;19.80;8.90
3037;DHT22;1528;52.550;13.408;2022-09-23T11:15:31;20.10;8.80
3037;DHT22;1528;52.550;13.408;2022-09-23T11:18:36;20.30;7.60
3037;DHT22;1528;52.550;13.408;2022-09-23T11:21:45;20.10;8.60
3037;DHT22;1528;52.550;13.408;2022-09-23T11:24:56;20.50;7.40
3037;DHT22;1528;52.550;13.408;2022-09-23T11:27:57;21.10;6.60
3037;DHT22;1528;52.550;13.408;2022-09-23T11:30:51;21.80;5.20
3037;DHT22;1528;52.550;13.408;2022-09-23T11:33:51;22.50;5.30
3037;DHT22;1528;52.550;13.408;2022-09-23T11:36:45;23.80;4.20
3037;DHT22;1528;52.550;13.408;2022-09-23T11:39:39;24.40;2.50
3037;DHT22;1528;52.550;13.408;2022-09-23T11:42:29;24.00;3.40
3037;DHT22;1528;52.550;13.408;2022-09-23T11:45:20;23.90;3.20
3037;DHT22;1528;52.550;13.408;2022-09-23T11:48:12;23.30;3.10
3037;DHT22;1528;52.550;13.408;2022-09-23T11:51:04;23.80;3.40
3037;DHT22;1528;52.550;13.408;2022-09-23T11:53:53;24.70;3.30
3037;DHT22;1528;52.550;13.408;2022-09-23T11:56:43;24.90;2.40
3037;DHT22;1528;52.550;13.408;2022-09-23T11:59:34;24.10;4.40
3037;DHT22;1528;52.550;13.408;2022-09-23T12:02:24;23.50;4.50
3037;DHT22;1528;52.550;13.408;2022-09-23T12:05:18;23.30;5.10
3037;DHT22;1528;52.550;13.408;2022-09-23T12:08:14;23.30;4.80
3037;DHT22;1528;52.550;13.408;2022-09-23T12:11:07;23.40;4.20
3037;DHT22;1528;52.550;13.408;2022-09-23T12:14:02;23.80;2.60
3037;DHT22;1528;52.550;13.408;2022-09-23T12:17:14;24.70;2.00
3037;DHT22;1528;52.550;13.408;2022-09-23T12:20:12;25.60;1.40
3037;DHT22;1528;52.550;13.408;2022-09-23T12:23:14;29.90;1.00
3037;DHT22;1528;52.550;13.408;2022-09-23T12:26:03;33.80;1.00
3037;DHT22;1528;52.550;13.408;2022-09-23T12:28:52;32.40;1.00
3037;DHT22;1528;52.550;13.408;2022-09-23T12:31:38;30.40;1.00
3037;DHT22;1528;52.550;13.408;2022-09-23T12:34:27;27.60;1.00
3037;DHT22;1528;52.550;13.408;2022-09-23T12:37:23;26.30;1.00
3037;DHT22;1528;52.550;13.408;2022-09-23T12:40:19;25.40;1.00
3037;DHT22;1528;52.550;13.408;2022-09-23T12:43:15;24.60;1.00
3037;DHT22;1528;52.550;13.408;2022-09-23T12:46:18;24.00;1.50
3037;DHT22;1528;52.550;13.408;2022-09-23T12:49:06;23.20;2.00
3037;DHT22;1528;52.550;13.408;2022-09-23T12:52:19;22.80;4.30
3037;DHT22;1528;52.550;13.408;2022-09-23T12:55:43;22.70;4.00
3037;DHT22;1528;52.550;13.408;2022-09-23T12:58:43;22.40;3.70
3037;DHT22;1528;52.550;13.408;2022-09-23T13:01:41;22.40;3.00
3037;DHT22;1528;52.550;13.408;2022-09-23T13:04:34;22.20;3.90
3037;DHT22;1528;52.550;13.408;2022-09-23T13:07:46;21.90;4.70
3037;DHT22;1528;52.550;13.408;2022-09-23T13:10:38;21.80;3.90
3037;DHT22;1528;52.550;13.408;2022-09-23T13:13:30;21.70;4.00
3037;DHT22;1528;52.550;13.408;2022-09-23T13:16:20;21.60;4.70
3037;DHT22;1528;52.550;13.408;2022-09-23T13:25:42;21.20;4.80
3037;DHT22;1528;52.550;13.408;2022-09-23T13:28:31;21.10;6.50
3037;DHT22;1528;52.550;13.408;2022-09-23T13:31:18;21.30;3.60
3037;DHT22;1528;52.550;13.408;2022-09-23T13:34:05;21.20;2.40
3037;DHT22;1528;52.550;13.408;2022-09-23T13:36:52;21.10;2.70
3037;DHT22;1528;52.550;13.408;2022-09-23T13:39:38;21.00;2.90
3037;DHT22;1528;52.550;13.408;2022-09-23T13:42:25;20.80;4.30
3037;DHT22;1528;52.550;13.408;2022-09-23T13:45:14;20.50;4.60
3037;DHT22;1528;52.550;13.408;2022-09-23T13:48:04;20.50;5.40
3037;DHT22;1528;52.550;13.408;2022-09-23T13:50:51;20.50;5.80
3037;DHT22;1528;52.550;13.408;2022-09-23T13:53:37;20.60;5.10
3037;DHT22;1528;52.550;13.408;2022-09-23T13:56:26;20.60;4.80
3037;DHT22;1528;52.550;13.408;2022-09-23T13:59:22;20.80;4.40
3037;DHT22;1528;52.550;13.408;2022-09-23T14:02:11;20.50;5.70
3037;DHT22;1528;52.550;13.408;2022-09-23T14:04:57;20.50;5.90
3037;DHT22;1528;52.550;13.408;2022-09-23T14:07:43;20.70;5.40
3037;DHT22;1528;52.550;13.408;2022-09-23T14:10:29;21.00;4.90
3037;DHT22;1528;52.550;13.408;2022-09-23T14:13:19;21.30;5.40
3037;DHT22;1528;52.550;13.408;2022-09-23T14:16:09;21.50;3.30
3037;DHT22;1528;52.550;13.408;2022-09-23T14:18:57;21.40;4.00
3037;DHT22;1528;52.550;13.408;2022-09-23T14:21:47;21.50;2.90
3037;DHT22;1528;52.550;13.408;2022-09-23T14:24:34;21.60;2.60
3037;DHT22;1528;52.550;13.408;2022-09-23T14:27:26;21.40;3.10
3037;DHT22;1528;52.550;13.408;2022-09-23T14:30:15;21.30;2.70
3037;DHT22;1528;52.550;13.408;2022-09-23T14:33:01;21.50;2.60
3037;DHT22;1528;52.550;13.408;2022-09-23T14:35:54;21.50;3.00
3037;DHT22;1528;52.550;13.408;2022-09-23T14:38:41;21.30;2.50
3037;DHT22;1528;52.550;13.408;2022-09-23T14:41:35;21.30;2.70
3037;DHT22;1528;52.550;13.408;2022-09-23T14:44:23;21.30;3.00
3037;DHT22;1528;52.550;13.408;2022-09-23T14:47:13;21.20;2.70
3037;DHT22;1528;52.550;13.408;2022-09-23T14:49:59;21.10;3.60
3037;DHT22;1528;52.550;13.408;2022-09-23T14:52:58;21.20;2.20
3037;DHT22;1528;52.550;13.408;2022-09-23T14:55:45;21.10;3.10
3037;DHT22;1528;52.550;13.408;2022-09-23T14:58:40;20.80;2.90
3037;DHT22;1528;52.550;13.408;2022-09-23T15:01:33;20.70;4.30
3037;DHT22;1528;52.550;13.408;2022-09-23T15:04:29;20.40;6.00
3037;DHT22;1528;52.550;13.408;2022-09-23T15:07:16;20.40;3.60
3037;DHT22;1528;52.550;13.408;2022-09-23T15:10:05;21.00;2.20
3037;DHT22;1528;52.550;13.408;2022-09-23T15:12:53;20.70;2.90
3037;DHT22;1528;52.550;13.408;2022-09-23T15:15:45;20.40;3.50
3037;DHT22;1528;52.550;13.408;2022-09-23T15:18:33;20.50;4.70
3037;DHT22;1528;52.550;13.408;2022-09-23T15:21:21;20.20;4.80
3037;DHT22;1528;52.550;13.408;2022-09-23T15:24:31;20.00;5.40
3037;DHT22;1528;52.550;13.408;2022-09-23T15:27:27;20.00;5.40
3037;DHT22;1528;52.550;13.408;2022-09-23T15:30:15;20.10;6.60
3037;DHT22;1528;52.550;13.408;2022-09-23T15:33:01;20.00;6.50
3037;DHT22;1528;52.550;13.408;2022-09-23T15:35:47;20.20;6.60
3037;DHT22;1528;52.550;13.408;2022-09-23T15:38:40;20.00;7.30
3037;DHT22;1528;52.550;13.408;2022-09-23T15:41:26;20.10;7.20
3037;DHT22;1528;52.550;13.408;2022-09-23T15:44:12;19.80;9.40
3037;DHT22;1528;52.550;13.408;2022-09-23T15:46:58;19.80;9.90
3037;DHT22;1528;52.550;13.408;2022-09-23T15:49:44;19.70;8.60
3037;DHT22;1528;52.550;13.408;2022-09-23T15:52:31;19.80;9.40
3037;DHT22;1528;52.550;13.408;2022-09-23T15:55:19;19.70;8.60
3037;DHT22;1528;52.550;13.408;2022-09-23T15:58:06;19.60;9.00
3037;DHT22;1528;52.550;13.408;2022-09-23T16:00:54;19.40;9.30
3037;DHT22;1528;52.550;13.408;2022-09-23T16:03:39;19.30;10.70
3037;DHT22;1528;52.550;13.408;2022-09-23T16:06:25;19.30;8.60
3037;DHT22;1528;52.550;13.408;2022-09-23T16:09:11;19.20;8.90
3037;DHT22;1528;52.550;13.408;2022-09-23T16:11:57;19.20;8.70
3037;DHT22;1528;52.550;13.408;2022-09-23T16:14:44;19.00;9.20
3037;DHT22;1528;52.550;13.408;2022-09-23T16:17:30;19.00;9.10
3037;DHT22;1528;52.550;13.408;2022-09-23T16:20:16;18.90;8.60
3037;DHT22;1528;52.550;13.408;2022-09-23T16:23:03;18.80;10.00
3037;DHT22;1528;52.550;13.408;2022-09-23T16:25:49;18.90;10.00
3037;DHT22;1528;52.550;13.408;2022-09-23T16:28:36;18.70;10.20
3037;DHT22;1528;52.550;13.408;2022-09-23T16:31:23;18.70;11.10
3037;DHT22;1528;52.550;13.408;2022-09-23T16:34:09;18.50;12.00
3037;DHT22;1528;52.550;13.408;2022-09-23T16:36:55;18.50;11.60
3037;DHT22;1528;52.550;13.408;2022-09-23T16:39:40;18.40;11.40
3037;DHT22;1528;52.550;13.408;2022-09-23T16:42:26;18.20;10.90
3037;DHT22;1528;52.550;13.408;2022-09-23T16:45:13;18.10;12.10
3037;DHT22;1528;52.550;13.408;2022-09-23T16:48:03;18.10;12.30
3037;DHT22;1528;52.550;13.408;2022-09-23T16:50:49;18.00;11.20
3037;DHT22;1528;52.550;13.408;2022-09-23T16:53:34;18.00;11.50
3037;DHT22;1528;52.550;13.408;2022-09-23T16:56:23;17.90;10.90
3037;DHT22;1528;52.550;13.408;2022-09-23T16:59:11;17.70;13.40
3037;DHT22;1528;52.550;13.408;2022-09-23T17:01:57;17.50;13.10
3037;DHT22;1528;52.550;13.408;2022-09-23T17:05:00;17.40;11.50
3037;DHT22;1528;52.550;13.408;2022-09-23T17:07:46;17.30;13.60
3037;DHT22;1528;52.550;13.408;2022-09-23T17:10:32;17.50;14.20
3037;DHT22;1528;52.550;13.408;2022-09-23T17:13:17;17.10;13.40
3037;DHT22;1528;52.550;13.408;2022-09-23T17:16:03;17.00;12.50
3037;DHT22;1528;52.550;13.408;2022-09-23T17:18:50;16.90;15.80
3037;DHT22;1528;52.550;13.408;2022-09-23T17:21:38;16.90;13.70
3037;DHT22;1528;52.550;13.408;2022-09-23T17:24:24;16.70;14.80
3037;DHT22;1528;52.550;13.408;2022-09-23T17:27:09;16.60;16.00
3037;DHT22;1528;52.550;13.408;2022-09-23T17:29:55;16.50;16.30
3037;DHT22;1528;52.550;13.408;2022-09-23T17:32:41;16.40;15.30
3037;DHT22;1528;52.550;13.408;2022-09-23T17:35:28;16.30;15.30
3037;DHT22;1528;52.550;13.408;2022-09-23T17:38:13;16.30;16.80
3037;DHT22;1528;52.550;13.408;2022-09-23T17:40:59;16.20;15.80
3037;DHT22;1528;52.550;13.408;2022-09-23T17:43:45;16.10;16.70
3037;DHT22;1528;52.550;13.408;2022-09-23T17:46:30;16.10;16.40
3037;DHT22;1528;52.550;13.408;2022-09-23T17:49:16;15.90;16.90
3037;DHT22;1528;52.550;13.408;2022-09-23T17:52:03;15.90;17.60
3037;DHT22;1528;52.550;13.408;2022-09-23T17:54:49;15.80;17.00
3037;DHT22;1528;52.550;13.408;2022-09-23T17:57:36;15.80;17.30
3037;DHT22;1528;52.550;13.408;2022-09-23T18:00:22;15.70;17.60
3037;DHT22;1528;52.550;13.408;2022-09-23T18:03:08;15.60;17.50
3037;DHT22;1528;52.550;13.408;2022-09-23T18:05:54;15.60;17.90
3037;DHT22;1528;52.550;13.408;2022-09-23T18:08:50;15.50;17.60
3037;DHT22;1528;52.550;13.408;2022-09-23T18:11:37;15.50;18.00
3037;DHT22;1528;52.550;13.408;2022-09-23T18:14:23;15.40;18.40
3037;DHT22;1528;52.550;13.408;2022-09-23T18:17:09;15.30;17.50
3037;DHT22;1528;52.550;13.408;2022-09-23T18:19:54;15.40;17.80
3037;DHT22;1528;52.550;13.408;2022-09-23T18:22:40;15.30;18.10
3037;DHT22;1528;52.550;13.408;2022-09-23T18:25:27;15.30;19.20